Time;durP1;ratioP1;P1;durP2;ratioP2;P2;SDS_P1;SDS_P2;PMS_P1;PMS_P2;Temp;Humidity;BMP_temperature;BMP_pressure;BME280_temperature;BME280_humidity;BME280_pressure;Samples;Min_cycle;Max_cycle;Signal;HPM_P1;HPM_P2
2021/06/29 00:03:16;;;;;;;19.67;14.03;;;;;;;17.41;77.30;98988.68;4469243;77;21041;-80
2021/06/29 00:09:17;;;;;;;18.23;12.03;;;;;;;17.41;77.37;98975.44;4459690;78;21045;-80
2021/06/29 00:15:20;;;;;;;15.90;12.73;;;;;;;17.39;77.22;98977.24;4464537;78;21534;-80
2021/06/29 00:21:21;;;;;;;18.52;11.70;;;;;;;17.23;77.54;98972.19;4451966;78;20955;-80
2021/06/29 00:27:22;;;;;;;19.35;13.95;;;;;;;17.01;77.75;98975.86;4444302;78;21070;-80
2021/06/29 00:33:23;;;;;;;19.35;12.23;;;;;;;16.90;77.88;98962.20;4463777;78;21032;-81
2021/06/29 00:39:25;;;;;;;16.37;11.48;;;;;;;16.93;78.64;98960.56;4438016;78;21645;-80
2021/06/29 00:45:26;;;;;;;14.60;10.50;;;;;;;17.01;78.77;98950.38;4419104;78;20999;-79
2021/06/29 00:51:28;;;;;;;17.70;14.10;;;;;;;16.74;78.74;98955.12;4428884;78;21104;-79
2021/06/29 00:57:29;;;;;;;14.25;11.70;;;;;;;16.71;79.07;98946.91;4406406;78;22250;-79
2021/06/29 01:03:30;;;;;;;18.02;12.15;;;;;;;16.60;79.30;98940.12;4402800;78;21002;-80
2021/06/29 01:09:33;;;;;;;15.05;10.18;;;;;;;16.57;79.60;98935.42;4416427;78;21528;-79
2021/06/29 01:15:34;;;;;;;16.45;11.35;;;;;;;16.53;79.83;98937.47;4409627;78;21081;-79
2021/06/29 01:21:39;;;;;;;19.98;11.48;;;;;;;16.51;79.87;98932.16;4432405;78;21083;-79
2021/06/29 01:27:47;;;;;;;20.77;11.63;;;;;;;16.44;80.08;98933.62;4392448;78;22224;-79
2021/06/29 01:33:43;;;;;;;18.98;11.55;;;;;;;16.45;80.59;98915.27;4406832;78;21066;-79
2021/06/29 01:39:57;;;;;;;18.85;10.20;;;;;;;16.43;80.63;98927.30;4444513;78;21531;-79
2021/06/29 01:45:57;;;;;;;18.75;11.40;;;;;;;16.21;80.41;98921.10;4465371;78;21041;-79
2021/06/29 01:51:58;;;;;;;17.70;10.32;;;;;;;16.06;81.19;98914.96;4443347;78;21074;-80
2021/06/29 01:58:00;;;;;;;13.50;10.40;;;;;;;16.02;81.07;98921.11;4444956;78;21062;-79
2021/06/29 02:04:01;;;;;;;17.57;11.00;;;;;;;15.90;81.16;98918.89;4438544;78;21042;-79
2021/06/29 02:10:05;;;;;;;15.98;10.80;;;;;;;15.93;81.99;98918.69;4471476;78;21057;-79
2021/06/29 02:16:06;;;;;;;14.95;9.83;;;;;;;16.02;81.73;98907.30;4439052;77;21086;-80
2021/06/29 02:22:08;;;;;;;16.67;11.18;;;;;;;15.87;81.64;98910.64;4442796;77;20942;-79
2021/06/29 02:28:09;;;;;;;17.23;10.93;;;;;;;15.79;81.80;98910.53;4442540;78;21085;-80
2021/06/29 02:34:11;;;;;;;14.20;9.18;;;;;;;15.73;82.05;98904.70;4430914;78;20995;-80
2021/06/29 02:40:13;;;;;;;14.90;9.15;;;;;;;15.70;82.00;98905.52;4445427;78;21066;-79
2021/06/29 02:46:14;;;;;;;17.70;11.38;;;;;;;15.52;82.14;98908.45;4454550;77;21090;-79
2021/06/29 02:52:16;;;;;;;16.70;11.80;;;;;;;15.55;82.58;98910.39;4383285;79;21569;-79
2021/06/29 02:58:18;;;;;;;17.67;10.70;;;;;;;15.55;82.57;98913.16;4407623;79;21553;-79
2021/06/29 03:04:19;;;;;;;12.60;9.38;;;;;;;15.42;82.74;98909.95;4382316;78;21057;-80
2021/06/29 03:10:21;;;;;;;19.00;11.60;;;;;;;15.48;82.79;98909.69;4401030;79;21057;-80
2021/06/29 03:16:22;;;;;;;15.72;10.58;;;;;;;15.54;82.95;98913.56;4416182;78;21010;-79
2021/06/29 03:22:24;;;;;;;14.20;9.50;;;;;;;15.74;83.58;98919.28;4402420;78;21115;-79
2021/06/29 03:28:25;;;;;;;21.10;11.60;;;;;;;15.89;83.23;98928.38;4404977;79;21100;-79
2021/06/29 03:34:26;;;;;;;14.70;11.40;;;;;;;15.72;83.29;98924.42;4390031;79;21069;-79
2021/06/29 03:40:28;;;;;;;14.40;10.05;;;;;;;15.67;83.78;98922.90;4396429;79;21038;-79
2021/06/29 03:46:30;;;;;;;14.90;11.40;;;;;;;15.73;83.89;98917.70;4314388;81;21077;-80
2021/06/29 03:52:31;;;;;;;12.05;10.00;;;;;;;15.72;84.14;98918.91;4386932;79;21069;-79
2021/06/29 03:58:32;;;;;;;18.92;10.68;;;;;;;15.96;84.75;98914.48;4430842;79;21025;-79
2021/06/29 04:04:34;;;;;;;17.92;11.08;;;;;;;16.20;84.78;98923.07;4392680;79;21113;-80
2021/06/29 04:10:35;;;;;;;14.03;11.43;;;;;;;16.34;84.60;98923.48;4400663;79;21081;-80
2021/06/29 04:16:36;;;;;;;18.23;12.03;;;;;;;16.51;84.66;98911.43;4389095;79;21046;-79
2021/06/29 04:22:38;;;;;;;14.87;10.85;;;;;;;16.62;84.82;98914.83;4390644;79;20990;-80
2021/06/29 04:28:40;;;;;;;15.68;10.85;;;;;;;16.76;84.91;98904.36;4377677;79;21020;-80
2021/06/29 04:34:41;;;;;;;15.72;10.82;;;;;;;16.93;84.79;98901.91;4383735;79;20967;-81
2021/06/29 04:40:43;;;;;;;13.50;10.80;;;;;;;17.07;85.08;98895.36;4422541;78;35120;-81
2021/06/29 04:46:48;;;;;;;12.65;10.75;;;;;;;17.28;85.24;98893.64;4399275;78;21032;-79
2021/06/29 04:52:54;;;;;;;14.15;10.20;;;;;;;17.44;85.24;98881.33;4383909;79;21057;-81
2021/06/29 04:58:57;;;;;;;13.28;9.45;;;;;;;17.64;85.06;98889.05;4385073;78;21021;-80
2021/06/29 05:04:58;;;;;;;10.85;9.70;;;;;;;17.83;84.86;98886.91;4390968;78;21500;-81
2021/06/29 05:11:00;;;;;;;12.68;10.03;;;;;;;18.10;84.60;98887.52;4396420;78;21034;-80
2021/06/29 05:17:01;;;;;;;14.30;10.60;;;;;;;18.42;84.37;98899.35;4414826;78;21791;-81
2021/06/29 05:23:02;;;;;;;14.00;9.80;;;;;;;18.65;83.98;98897.23;4390621;78;21493;-81
2021/06/29 05:29:05;;;;;;;14.73;9.03;;;;;;;18.79;83.67;98896.75;4373790;78;21033;-81
2021/06/29 05:35:09;;;;;;;12.98;9.63;;;;;;;18.99;83.46;98886.35;4411082;78;21440;-81
2021/06/29 05:41:11;;;;;;;12.55;9.83;;;;;;;19.28;83.28;98887.25;4289611;80;21085;-81
2021/06/29 05:47:19;;;;;;;15.08;9.93;;;;;;;19.48;83.23;98890.69;4293440;80;21011;-81
2021/06/29 05:53:16;;;;;;;10.28;8.63;;;;;;;19.68;82.94;98878.24;4283012;80;21082;-81
2021/06/29 05:59:17;;;;;;;12.47;10.10;;;;;;;19.79;82.46;98878.73;4291495;80;22202;-81
2021/06/29 06:05:18;;;;;;;10.45;8.48;;;;;;;19.95;82.48;98870.95;4292432;80;21030;-81
2021/06/29 06:11:20;;;;;;;13.43;9.10;;;;;;;20.17;82.35;98862.20;4289042;80;21472;-81
2021/06/29 06:17:21;;;;;;;10.82;9.15;;;;;;;20.34;81.64;98869.22;4280919;80;21558;-82
2021/06/29 06:23:22;;;;;;;10.18;7.62;;;;;;;20.52;81.34;98866.67;4276756;80;21586;-81
2021/06/29 06:29:24;;;;;;;10.78;7.33;;;;;;;20.73;80.81;98862.45;4269526;80;21109;-82
2021/06/29 06:35:25;;;;;;;12.03;7.78;;;;;;;20.97;80.20;98855.34;4275458;80;21031;-82
2021/06/29 06:41:27;;;;;;;11.15;7.47;;;;;;;21.27;79.91;98856.09;4286393;81;21539;-81
2021/06/29 06:47:28;;;;;;;12.28;7.65;;;;;;;21.52;79.35;98851.23;4271345;80;21050;-82
2021/06/29 06:53:29;;;;;;;9.08;6.67;;;;;;;21.73;78.86;98856.67;4293687;80;21081;-81
2021/06/29 06:59:31;;;;;;;10.43;6.65;;;;;;;21.99;78.43;98853.94;4277674;80;21601;-80
2021/06/29 07:05:32;;;;;;;10.30;7.55;;;;;;;22.34;77.62;98833.70;4281321;80;22444;-82
2021/06/29 07:11:33;;;;;;;8.90;6.85;;;;;;;22.64;76.86;98833.73;4273250;80;21581;-82
2021/06/29 07:17:36;;;;;;;12.28;7.75;;;;;;;22.88;76.53;98827.74;4282215;80;21466;-82
2021/06/29 07:23:37;;;;;;;10.50;8.00;;;;;;;23.41;75.81;98824.77;4269114;80;21034;-83
2021/06/29 07:29:39;;;;;;;13.05;7.55;;;;;;;23.87;74.88;98822.88;4285447;80;21110;-82
2021/06/29 07:35:40;;;;;;;13.28;8.08;;;;;;;24.00;74.08;98816.53;4275881;80;21031;-80
2021/06/29 07:41:41;;;;;;;8.78;7.40;;;;;;;24.31;73.61;98819.08;4231028;82;21067;-81
2021/06/29 07:47:43;;;;;;;8.75;6.80;;;;;;;24.27;73.02;98810.88;4236828;82;20994;-80
2021/06/29 07:53:46;;;;;;;9.78;6.78;;;;;;;24.24;72.54;98812.43;4232608;81;21081;-82
2021/06/29 07:59:47;;;;;;;9.28;6.85;;;;;;;24.53;72.32;98812.01;4242848;82;21073;-82
2021/06/29 08:05:49;;;;;;;9.88;7.30;;;;;;;24.56;71.50;98809.66;4225587;82;21007;-82
2021/06/29 08:11:50;;;;;;;7.22;6.50;;;;;;;24.65;70.94;98810.23;4257276;82;21034;-81
2021/06/29 08:17:52;;;;;;;8.20;6.12;;;;;;;24.81;70.14;98805.67;4235864;81;29620;-84
2021/06/29 08:23:53;;;;;;;7.12;6.42;;;;;;;25.07;69.00;98811.59;4242688;82;21060;-83
2021/06/29 08:29:56;;;;;;;6.78;6.00;;;;;;;25.36;67.97;98810.33;4262274;82;21029;-84
2021/06/29 08:35:58;;;;;;;7.12;5.67;;;;;;;25.65;67.24;98816.02;4257645;81;21080;-82
2021/06/29 08:41:59;;;;;;;6.87;6.17;;;;;;;25.65;66.22;98810.41;4320303;81;21054;-81
2021/06/29 08:48:02;;;;;;;6.97;5.85;;;;;;;25.42;61.53;98807.78;4316235;80;21116;-83
2021/06/29 08:54:05;;;;;;;6.55;5.62;;;;;;;25.32;61.14;98811.90;4328090;81;21156;-81
2021/06/29 09:00:28;;;;;;;11.08;6.05;;;;;;;25.09;62.24;98805.66;4324154;81;21092;-80
2021/06/29 09:06:32;;;;;;;6.42;5.83;;;;;;;24.81;61.01;98798.67;4145196;84;21004;-80
2021/06/29 09:12:51;;;;;;;6.67;5.97;;;;;;;24.37;61.81;98815.78;4088723;85;21608;-82
2021/06/29 09:18:52;;;;;;;7.42;6.72;;;;;;;24.02;63.39;98816.05;4084033;85;21042;-81
2021/06/29 09:24:54;;;;;;;8.18;6.97;;;;;;;23.68;63.91;98824.13;4102789;85;21338;-81
2021/06/29 09:31:08;;;;;;;7.78;6.20;;;;;;;23.47;65.16;98800.55;4086756;85;21134;-82
2021/06/29 09:37:26;;;;;;;10.05;6.60;;;;;;;23.51;65.62;98790.77;4103149;85;21046;-82
2021/06/29 09:43:31;;;;;;;6.92;6.22;;;;;;;23.64;65.72;98796.20;4092332;85;21023;-83
2021/06/29 09:49:33;;;;;;;7.35;5.65;;;;;;;24.26;66.00;98795.31;4100719;85;21038;-82
2021/06/29 09:55:42;;;;;;;7.95;6.30;;;;;;;24.87;65.90;98786.22;4102295;86;21086;-81
2021/06/29 10:01:44;;;;;;;7.08;6.20;;;;;;;25.22;65.13;98780.98;4101609;84;21091;-82
2021/06/29 10:07:45;;;;;;;7.03;5.30;;;;;;;25.09;64.76;98757.30;4122564;85;21056;-85
2021/06/29 10:13:52;;;;;;;8.88;5.65;;;;;;;25.09;64.76;98757.30;4117056;85;21662;-81
2021/06/29 10:20:11;;;;;;;7.58;5.67;;;;;;;25.27;64.47;98780.95;4128625;84;21612;-78
2021/06/29 10:26:03;;;;;;;7.62;5.65;;;;;;;25.53;64.69;98767.98;4112152;85;21076;-79
2021/06/29 10:32:11;;;;;;;10.10;5.65;;;;;;;25.84;60.92;98749.46;4045406;86;21113;-81
2021/06/29 10:38:12;;;;;;;6.03;5.20;;;;;;;26.34;62.17;98760.78;4112314;85;21513;-82
2021/06/29 10:44:18;;;;;;;7.03;5.47;;;;;;;26.81;62.23;98747.20;4042795;86;21097;-80
2021/06/29 10:50:20;;;;;;;7.53;5.08;;;;;;;26.96;60.86;98739.52;4089882;86;21074;-80
2021/06/29 10:56:23;;;;;;;5.53;4.67;;;;;;;27.34;60.60;98739.22;4112109;85;21576;-83
2021/06/29 11:02:36;;;;;;;5.90;4.90;;;;;;;27.67;59.71;98738.05;4043515;86;21109;-81
2021/06/29 11:08:47;;;;;;;4.80;4.30;;;;;;;28.02;58.74;98740.08;4137057;84;21076;-82
2021/06/29 11:14:54;;;;;;;6.83;4.85;;;;;;;28.55;58.71;98743.83;4143415;83;21099;-85
2021/06/29 11:20:55;;;;;;;7.20;4.58;;;;;;;29.10;57.78;98729.30;4145581;83;21092;-81
2021/06/29 11:26:57;;;;;;;5.45;3.98;;;;;;;29.46;57.29;98734.03;4069822;84;21709;-82
2021/06/29 11:33:21;;;;;;;4.50;4.10;;;;;;;29.83;56.86;98731.84;4128873;84;21091;-82
2021/06/29 11:39:26;;;;;;;5.15;4.40;;;;;;;29.88;55.23;98740.92;4107655;85;21156;-81
2021/06/29 11:45:32;;;;;;;6.70;4.10;;;;;;;30.14;54.68;98729.41;4108066;84;21122;-81
2021/06/29 11:52:12;;;;;;;5.50;4.00;;;;;;;30.31;53.34;98720.31;4175125;83;21589;-81
2021/06/29 11:58:12;;;;;;;5.08;3.83;;;;;;;30.44;52.53;98702.98;4135361;83;21103;-81
2021/06/29 12:04:14;;;;;;;4.67;4.00;;;;;;;30.53;52.38;98692.81;4055022;84;21665;-83
2021/06/29 12:10:28;;;;;;;6.15;4.20;;;;;;;30.54;51.98;98678.81;4049165;86;21052;-81
2021/06/29 12:16:30;;;;;;;5.67;4.55;;;;;;;30.00;51.63;98665.52;4122298;85;21052;-82
2021/06/29 12:22:34;;;;;;;5.30;4.47;;;;;;;29.41;51.75;98669.95;4054496;86;21087;-82
2021/06/29 12:28:38;;;;;;;5.62;4.37;;;;;;;29.19;51.77;98674.77;4117738;85;21108;-82
2021/06/29 12:34:40;;;;;;;6.55;4.17;;;;;;;28.99;51.31;98672.23;4052433;86;21592;-82
2021/06/29 12:40:46;;;;;;;4.97;4.20;;;;;;;28.61;51.00;98655.17;4115485;85;21112;-83
2021/06/29 12:46:47;;;;;;;8.78;4.17;;;;;;;28.16;51.32;98651.28;4051887;86;21104;-82
2021/06/29 12:52:52;;;;;;;4.85;4.10;;;;;;;27.92;51.67;98642.44;4109737;85;21135;-81
2021/06/29 12:58:54;;;;;;;4.70;3.77;;;;;;;28.01;52.04;98627.39;4099243;86;20972;-82
2021/06/29 13:05:00;;;;;;;5.28;4.28;;;;;;;28.23;50.93;98612.06;4116443;84;21934;-82
2021/06/29 13:11:13;;;;;;;5.85;4.08;;;;;;;28.16;51.60;98609.73;4165019;83;21086;-80
2021/06/29 13:17:14;;;;;;;5.75;3.98;;;;;;;28.01;51.24;98602.85;4136389;84;21105;-83
2021/06/29 13:23:16;;;;;;;5.35;4.22;;;;;;;27.87;51.49;98595.94;4200057;83;21105;-82
2021/06/29 13:29:31;;;;;;;8.25;4.22;;;;;;;27.82;51.29;98591.81;4143447;84;21072;-82
2021/06/29 13:35:33;;;;;;;7.37;4.43;;;;;;;27.76;51.22;98590.23;4198514;83;21006;-84
2021/06/29 13:41:39;;;;;;;6.85;4.62;;;;;;;27.64;51.07;98585.93;4134314;84;21019;-82
2021/06/29 13:47:53;;;;;;;6.85;4.83;;;;;;;27.61;51.31;98574.28;4205063;83;20987;-81
2021/06/29 13:54:21;;;;;;;5.33;4.40;;;;;;;27.58;51.61;98559.81;4138179;84;21042;-81
2021/06/29 14:00:27;;;;;;;5.28;4.37;;;;;;;27.53;51.67;98542.27;4202840;83;21038;-83
2021/06/29 14:06:29;;;;;;;5.12;4.65;;;;;;;27.53;52.00;98538.70;4082263;86;21059;-85
2021/06/29 14:12:30;;;;;;;4.20;3.83;;;;;;;27.65;51.91;98534.69;4158489;84;21116;-83
2021/06/29 14:18:33;;;;;;;5.67;5.17;;;;;;;27.73;50.98;98516.09;4068573;86;21044;-81
2021/06/29 14:24:34;;;;;;;5.10;4.47;;;;;;;27.69;49.59;98528.19;4135303;84;21012;-81
2021/06/29 14:30:36;;;;;;;5.87;4.75;;;;;;;27.66;51.20;98524.97;4069109;86;21064;-82
2021/06/29 14:36:39;;;;;;;5.28;4.80;;;;;;;27.74;51.26;98520.43;4079038;85;21075;-82
2021/06/29 14:42:40;;;;;;;10.43;5.08;;;;;;;27.81;51.45;98508.73;4133439;84;21512;-83
2021/06/29 14:48:41;;;;;;;4.83;4.40;;;;;;;27.84;51.23;98512.56;4075915;86;21056;-81
2021/06/29 14:54:43;;;;;;;6.85;4.42;;;;;;;27.77;51.29;98515.20;4147846;83;21616;-83
2021/06/29 15:00:44;;;;;;;4.72;4.20;;;;;;;27.58;51.27;98502.18;4137176;84;21068;-81
2021/06/29 15:06:45;;;;;;;6.62;4.92;;;;;;;27.60;51.33;98499.65;4106025;84;21056;-83
2021/06/29 15:12:47;;;;;;;5.17;4.55;;;;;;;27.62;51.38;98486.49;4182027;83;21540;-80
2021/06/29 15:18:50;;;;;;;6.10;4.25;;;;;;;27.69;51.33;98491.63;4179489;84;21074;-81
2021/06/29 15:24:51;;;;;;;4.80;4.30;;;;;;;27.67;51.40;98472.33;4177604;84;22156;-81
2021/06/29 15:30:53;;;;;;;5.20;4.70;;;;;;;27.60;51.43;98474.97;4174387;84;21575;-82
2021/06/29 15:36:55;;;;;;;6.12;4.70;;;;;;;27.57;51.82;98458.48;4176612;84;21116;-82
2021/06/29 15:43:02;;;;;;;7.37;4.83;;;;;;;27.57;52.20;98438.02;4241121;82;21705;-82
2021/06/29 15:49:05;;;;;;;6.05;4.47;;;;;;;27.56;52.69;98426.00;4242512;82;21017;-84
2021/06/29 15:55:25;;;;;;;;;;;;;;;;;;;;;
2021/06/29 16:01:20;;;;;;;5.87;4.67;;;;;;;27.42;52.88;98453.64;4202504;82;21654;-82
2021/06/29 16:07:23;;;;;;;7.67;4.70;;;;;;;27.31;53.25;98438.77;4192463;82;21040;-82
2021/06/29 16:13:25;;;;;;;8.50;5.03;;;;;;;27.34;53.92;98420.24;4191706;83;21040;-81
2021/06/29 16:19:26;;;;;;;5.92;4.72;;;;;;;27.49;54.15;98406.03;4196928;84;21123;-81
2021/06/29 16:25:28;;;;;;;5.50;4.95;;;;;;;27.59;54.40;98391.91;4200688;84;21564;-81
2021/06/29 16:31:30;;;;;;;5.83;5.15;;;;;;;27.60;54.72;98387.81;4197310;84;21047;-82
2021/06/29 16:37:31;;;;;;;6.00;5.40;;;;;;;27.46;55.13;98381.73;4200043;83;21068;-82
2021/06/29 16:43:32;;;;;;;5.87;5.33;;;;;;;27.36;55.51;98386.80;4190907;84;21072;-82
2021/06/29 16:49:34;;;;;;;6.33;5.72;;;;;;;27.23;56.36;98382.23;4189447;84;21109;-82
2021/06/29 16:55:39;;;;;;;9.03;7.03;;;;;;;27.10;56.86;98384.70;4191702;84;21079;-83
2021/06/29 17:01:41;;;;;;;7.12;5.92;;;;;;;27.06;56.85;98384.14;4187964;83;21493;-83
2021/06/29 17:07:42;;;;;;;8.30;6.65;;;;;;;26.90;57.29;98374.20;4251839;82;21060;-82
2021/06/29 17:13:43;;;;;;;6.35;5.75;;;;;;;26.73;57.76;98369.87;4263924;82;21038;-82
2021/06/29 17:19:45;;;;;;;8.38;6.42;;;;;;;26.61;57.97;98366.03;4256947;82;21143;-84
2021/06/29 17:25:47;;;;;;;7.17;5.90;;;;;;;26.43;58.78;98359.36;4278496;82;21539;-80
2021/06/29 17:31:48;;;;;;;9.08;7.60;;;;;;;26.36;59.07;98365.42;4276617;82;21587;-80
2021/06/29 17:37:50;;;;;;;9.00;7.58;;;;;;;26.31;59.33;98380.16;4270608;82;21023;-82
2021/06/29 17:43:51;;;;;;;12.18;8.85;;;;;;;26.14;59.75;98386.37;4251013;82;21032;-80
2021/06/29 17:49:53;;;;;;;14.73;10.90;;;;;;;26.02;59.89;98372.72;4266391;82;22557;-81
2021/06/29 17:55:54;;;;;;;14.10;11.15;;;;;;;25.87;60.17;98362.20;4265799;82;21068;-81
2021/06/29 18:01:55;;;;;;;20.60;11.57;;;;;;;25.73;60.79;98365.86;4264052;82;21075;-81
2021/06/29 18:07:58;;;;;;;12.13;8.78;;;;;;;25.61;61.24;98356.54;4211690;82;21083;-82
2021/06/29 18:14:01;;;;;;;11.35;7.25;;;;;;;25.54;61.70;98348.53;4201004;83;21044;-82
2021/06/29 18:20:03;;;;;;;11.03;7.70;;;;;;;25.42;62.18;98346.86;4195012;83;21314;-82
2021/06/29 18:26:05;;;;;;;10.35;7.50;;;;;;;25.36;62.68;98356.45;4194283;83;21061;-81
2021/06/29 18:32:07;;;;;;;11.03;9.33;;;;;;;25.12;63.16;98345.40;4057312;86;21093;-81
2021/06/29 18:38:08;;;;;;;16.27;8.03;;;;;;;24.85;63.99;98341.58;4124752;84;21061;-82
2021/06/29 18:44:10;;;;;;;11.85;9.90;;;;;;;24.68;64.86;98337.11;4055211;86;21084;-82
2021/06/29 18:50:14;;;;;;;11.15;8.10;;;;;;;24.61;65.28;98343.09;4119621;85;21540;-82
2021/06/29 18:56:18;;;;;;;10.10;8.20;;;;;;;24.54;65.55;98346.27;4125753;85;21072;-81
2021/06/29 19:02:18;;;;;;;8.83;8.03;;;;;;;24.33;65.96;98343.88;4052236;86;21061;-81
2021/06/29 19:08:22;;;;;;;9.78;6.92;;;;;;;24.13;66.57;98333.34;4143403;84;21104;-81
2021/06/29 19:14:27;;;;;;;8.05;7.17;;;;;;;24.04;66.91;98341.83;4157902;84;21094;-80
2021/06/29 19:20:28;;;;;;;9.30;7.60;;;;;;;23.98;67.17;98345.14;4093919;84;21072;-80
2021/06/29 19:26:30;;;;;;;9.85;8.20;;;;;;;23.87;67.40;98337.91;4142203;84;21561;-80
2021/06/29 19:32:32;;;;;;;11.48;7.62;;;;;;;23.77;67.71;98342.06;4092458;84;21016;-81
2021/06/29 19:38:33;;;;;;;11.33;7.20;;;;;;;23.68;68.03;98347.70;4159629;84;21103;-81
2021/06/29 19:44:34;;;;;;;10.13;8.15;;;;;;;23.59;68.32;98346.38;4089769;86;21040;-82
2021/06/29 19:50:38;;;;;;;10.68;9.28;;;;;;;23.47;68.54;98337.64;4173676;83;21032;-82
2021/06/29 19:56:39;;;;;;;11.85;9.43;;;;;;;23.28;69.06;98334.81;4075821;86;21081;-81
2021/06/29 20:02:41;;;;;;;12.80;8.85;;;;;;;23.15;69.71;98337.81;4164693;84;21063;-81
2021/06/29 20:08:42;;;;;;;12.90;8.65;;;;;;;23.05;70.23;98333.52;4074600;86;21163;-80
2021/06/29 20:14:43;;;;;;;14.73;10.15;;;;;;;22.96;70.49;98327.99;4155834;84;21098;-80
2021/06/29 20:20:48;;;;;;;13.15;8.75;;;;;;;22.79;70.78;98321.88;4082279;86;21632;-81
2021/06/29 20:26:48;;;;;;;10.85;8.95;;;;;;;22.69;71.24;98318.35;4141368;84;21900;-81
2021/06/29 20:32:49;;;;;;;9.80;8.45;;;;;;;22.57;71.51;98324.14;4147578;84;21651;-81
2021/06/29 20:38:52;;;;;;;10.78;9.68;;;;;;;22.50;71.79;98318.27;4139894;84;21147;-81
2021/06/29 20:44:54;;;;;;;14.40;9.15;;;;;;;22.41;72.11;98312.70;4075061;86;21607;-81
2021/06/29 20:50:55;;;;;;;11.57;8.68;;;;;;;22.32;72.46;98306.38;4158792;83;21076;-80
2021/06/29 20:56:58;;;;;;;11.80;9.78;;;;;;;22.23;72.75;98302.23;4143429;84;21135;-80
2021/06/29 21:02:59;;;;;;;13.53;9.93;;;;;;;22.06;73.22;98294.86;4083886;84;21033;-81
2021/06/29 21:09:01;;;;;;;11.53;10.10;;;;;;;22.00;73.74;98306.48;4088712;85;22293;-81
2021/06/29 21:15:05;;;;;;;11.08;9.00;;;;;;;21.99;74.15;98290.98;4157186;83;21119;-81
2021/06/29 21:21:06;;;;;;;10.75;9.25;;;;;;;21.91;74.40;98295.34;4107045;85;21108;-81
2021/06/29 21:27:07;;;;;;;10.53;9.18;;;;;;;21.83;74.79;98294.13;4154549;84;21237;-80
2021/06/29 21:33:09;;;;;;;17.70;9.03;;;;;;;21.74;75.21;98292.70;4128094;85;21568;-81
2021/06/29 21:39:12;;;;;;;13.50;8.95;;;;;;;21.67;75.56;98285.43;4159398;83;21075;-81
2021/06/29 21:45:13;;;;;;;13.45;9.53;;;;;;;21.64;76.01;98282.83;4168585;83;22198;-81
2021/06/29 21:51:18;;;;;;;12.25;10.03;;;;;;;21.62;76.18;98283.90;4103989;85;21012;-81
2021/06/29 21:57:19;;;;;;;12.53;10.15;;;;;;;21.53;76.55;98276.95;4158834;83;21098;-80
2021/06/29 22:03:20;;;;;;;12.45;10.90;;;;;;;21.39;76.94;98263.65;4093963;85;21055;-82
2021/06/29 22:09:21;;;;;;;12.05;10.10;;;;;;;21.27;77.23;98259.77;4169357;83;21080;-81
2021/06/29 22:15:23;;;;;;;12.45;9.85;;;;;;;21.14;77.52;98260.53;4080573;85;21035;-81
2021/06/29 22:21:26;;;;;;;10.88;9.60;;;;;;;21.07;77.95;98258.67;4148933;84;21032;-81
2021/06/29 22:27:29;;;;;;;26.68;15.45;;;;;;;21.00;78.41;98255.56;4081096;85;21087;-80
2021/06/29 22:33:32;;;;;;;11.73;9.38;;;;;;;20.93;78.69;98255.85;4170347;83;21020;-82
2021/06/29 22:39:33;;;;;;;10.05;8.45;;;;;;;20.94;79.72;98263.59;4102708;85;21068;-82
2021/06/29 22:45:38;;;;;;;9.85;8.90;;;;;;;20.86;80.19;98244.25;4142175;84;21092;-81
2021/06/29 22:51:39;;;;;;;12.18;8.95;;;;;;;20.76;79.90;98239.29;4090599;85;21026;-80
2021/06/29 22:57:41;;;;;;;15.60;10.03;;;;;;;20.65;80.13;98234.78;4172157;83;21020;-80
2021/06/29 23:03:42;;;;;;;14.58;10.25;;;;;;;20.57;80.28;98231.34;4125398;85;21072;-81
2021/06/29 23:09:43;;;;;;;9.73;8.73;;;;;;;20.52;80.62;98231.95;4201758;83;22040;-80
2021/06/29 23:15:45;;;;;;;9.50;8.50;;;;;;;20.45;81.09;98228.08;4133789;85;21007;-80
2021/06/29 23:21:46;;;;;;;12.10;9.23;;;;;;;20.37;81.26;98219.87;4203911;83;21129;-81
2021/06/29 23:27:47;;;;;;;9.88;8.88;;;;;;;20.31;81.55;98208.59;4188385;84;21087;-82
2021/06/29 23:33:49;;;;;;;11.60;9.03;;;;;;;20.30;81.82;98195.16;4185811;84;21080;-80
2021/06/29 23:39:59;;;;;;;11.88;9.23;;;;;;;20.23;81.99;98177.51;4183396;84;21028;-80
2021/06/29 23:45:56;;;;;;;12.23;9.00;;;;;;;20.20;82.13;98163.78;4184164;84;21666;-81
2021/06/29 23:51:57;;;;;;;12.00;9.30;;;;;;;20.16;82.31;98166.70;4082335;86;21144;-81
2021/06/29 23:57:58;;;;;;;12.35;9.93;;;;;;;20.16;82.55;98161.74;4206229;83;21801;-81
